sensor_id;sensor_type;location;lat;lon;timestamp;temperature;humidity
33007;DHT22;19361;51.598;7.650;2024-03-23T00:58:49;11.70;67.40
33007;DHT22;19361;51.598;7.650;2024-03-23T01:03:50;11.60;67.30
33007;DHT22;19361;51.598;7.650;2024-03-23T01:08:51;11.60;67.30
33007;DHT22;19361;51.598;7.650;2024-03-23T01:13:53;11.60;67.30
33007;DHT22;19361;51.598;7.650;2024-03-23T01:18:56;11.50;67.40
33007;DHT22;19361;51.598;7.650;2024-03-23T01:23:57;11.50;67.50
33007;DHT22;19361;51.598;7.650;2024-03-23T01:28:57;11.50;67.60
33007;DHT22;19361;51.598;7.650;2024-03-23T01:33:58;11.50;67.40
33007;DHT22;19361;51.598;7.650;2024-03-23T01:38:59;11.40;67.10
33007;DHT22;19361;51.598;7.650;2024-03-23T01:44:04;11.40;67.40
33007;DHT22;19361;51.598;7.650;2024-03-23T01:49:08;11.40;67.80
33007;DHT22;19361;51.598;7.650;2024-03-23T01:54:10;11.40;67.60
33007;DHT22;19361;51.598;7.650;2024-03-23T01:59:11;11.40;67.60
33007;DHT22;19361;51.598;7.650;2024-03-23T02:04:11;11.30;67.20
33007;DHT22;19361;51.598;7.650;2024-03-23T02:09:12;11.30;67.20
33007;DHT22;19361;51.598;7.650;2024-03-23T02:14:14;11.20;67.10
33007;DHT22;19361;51.598;7.650;2024-03-23T02:19:14;11.20;67.00
33007;DHT22;19361;51.598;7.650;2024-03-23T02:24:15;11.20;67.20
33007;DHT22;19361;51.598;7.650;2024-03-23T02:29:15;11.10;67.20
33007;DHT22;19361;51.598;7.650;2024-03-23T02:34:16;11.10;67.20
33007;DHT22;19361;51.598;7.650;2024-03-23T02:39:17;11.10;67.20
33007;DHT22;19361;51.598;7.650;2024-03-23T02:44:17;11.00;67.20
33007;DHT22;19361;51.598;7.650;2024-03-23T02:49:18;11.00;67.00
33007;DHT22;19361;51.598;7.650;2024-03-23T02:54:19;11.00;67.00
33007;DHT22;19361;51.598;7.650;2024-03-23T02:59:19;11.00;67.00
33007;DHT22;19361;51.598;7.650;2024-03-23T03:04:20;10.90;66.90
33007;DHT22;19361;51.598;7.650;2024-03-23T03:09:21;10.90;66.90
33007;DHT22;19361;51.598;7.650;2024-03-23T03:14:21;10.90;66.70
33007;DHT22;19361;51.598;7.650;2024-03-23T03:19:22;10.90;66.60
33007;DHT22;19361;51.598;7.650;2024-03-23T03:24:23;10.80;66.40
33007;DHT22;19361;51.598;7.650;2024-03-23T03:29:24;10.80;66.40
33007;DHT22;19361;51.598;7.650;2024-03-23T03:34:25;10.70;66.30
33007;DHT22;19361;51.598;7.650;2024-03-23T03:39:25;10.70;66.20
33007;DHT22;19361;51.598;7.650;2024-03-23T03:44:26;10.60;65.80
33007;DHT22;19361;51.598;7.650;2024-03-23T03:49:27;10.60;66.00
33007;DHT22;19361;51.598;7.650;2024-03-23T03:54:27;10.60;66.10
33007;DHT22;19361;51.598;7.650;2024-03-23T03:59:29;10.60;66.10
33007;DHT22;19361;51.598;7.650;2024-03-23T04:04:30;10.60;66.00
33007;DHT22;19361;51.598;7.650;2024-03-23T04:09:30;10.60;66.10
33007;DHT22;19361;51.598;7.650;2024-03-23T04:14:31;10.60;66.10
33007;DHT22;19361;51.598;7.650;2024-03-23T04:19:32;10.50;66.00
33007;DHT22;19361;51.598;7.650;2024-03-23T04:24:32;10.50;66.20
33007;DHT22;19361;51.598;7.650;2024-03-23T04:29:33;10.50;66.40
33007;DHT22;19361;51.598;7.650;2024-03-23T04:34:34;10.50;66.40
33007;DHT22;19361;51.598;7.650;2024-03-23T04:39:36;10.50;66.80
33007;DHT22;19361;51.598;7.650;2024-03-23T04:44:37;10.40;66.30
33007;DHT22;19361;51.598;7.650;2024-03-23T04:49:37;10.40;66.40
33007;DHT22;19361;51.598;7.650;2024-03-23T04:54:38;10.40;66.50
33007;DHT22;19361;51.598;7.650;2024-03-23T04:59:40;10.40;66.50
33007;DHT22;19361;51.598;7.650;2024-03-23T05:04:41;10.40;66.40
33007;DHT22;19361;51.598;7.650;2024-03-23T05:09:42;10.40;66.50
33007;DHT22;19361;51.598;7.650;2024-03-23T05:14:43;10.40;66.40
33007;DHT22;19361;51.598;7.650;2024-03-23T05:19:43;10.40;66.40
33007;DHT22;19361;51.598;7.650;2024-03-23T05:24:47;10.40;66.50
33007;DHT22;19361;51.598;7.650;2024-03-23T05:29:48;10.30;66.80
33007;DHT22;19361;51.598;7.650;2024-03-23T05:34:49;10.30;66.70
33007;DHT22;19361;51.598;7.650;2024-03-23T05:39:55;10.30;66.50
33007;DHT22;19361;51.598;7.650;2024-03-23T05:44:56;10.30;66.50
33007;DHT22;19361;51.598;7.650;2024-03-23T05:49:57;10.30;66.50
33007;DHT22;19361;51.598;7.650;2024-03-23T05:54:57;10.30;66.60
33007;DHT22;19361;51.598;7.650;2024-03-23T05:59:58;10.20;66.80
33007;DHT22;19361;51.598;7.650;2024-03-23T06:04:59;10.20;66.90
33007;DHT22;19361;51.598;7.650;2024-03-23T06:10:00;10.20;67.00
33007;DHT22;19361;51.598;7.650;2024-03-23T06:15:00;10.20;67.00
33007;DHT22;19361;51.598;7.650;2024-03-23T06:20:01;10.20;67.10
33007;DHT22;19361;51.598;7.650;2024-03-23T06:25:02;10.20;67.10
33007;DHT22;19361;51.598;7.650;2024-03-23T06:30:03;10.20;67.70
33007;DHT22;19361;51.598;7.650;2024-03-23T06:35:04;10.20;67.20
33007;DHT22;19361;51.598;7.650;2024-03-23T06:40:08;10.20;67.50
33007;DHT22;19361;51.598;7.650;2024-03-23T06:45:10;10.30;67.50
33007;DHT22;19361;51.598;7.650;2024-03-23T06:50:10;10.20;67.50
33007;DHT22;19361;51.598;7.650;2024-03-23T06:55:11;10.30;67.30
33007;DHT22;19361;51.598;7.650;2024-03-23T07:00:12;10.20;67.50
33007;DHT22;19361;51.598;7.650;2024-03-23T07:05:15;10.20;68.20
33007;DHT22;19361;51.598;7.650;2024-03-23T07:10:16;10.20;67.90
33007;DHT22;19361;51.598;7.650;2024-03-23T07:15:17;10.30;68.10
33007;DHT22;19361;51.598;7.650;2024-03-23T07:20:18;10.30;68.20
33007;DHT22;19361;51.598;7.650;2024-03-23T07:25:20;10.40;68.40
33007;DHT22;19361;51.598;7.650;2024-03-23T07:30:21;10.40;68.70
33007;DHT22;19361;51.598;7.650;2024-03-23T07:35:22;10.60;69.30
33007;DHT22;19361;51.598;7.650;2024-03-23T07:40:23;10.70;69.30
33007;DHT22;19361;51.598;7.650;2024-03-23T07:45:23;10.90;68.60
33007;DHT22;19361;51.598;7.650;2024-03-23T07:50:24;11.00;68.50
33007;DHT22;19361;51.598;7.650;2024-03-23T07:55:25;11.10;68.40
33007;DHT22;19361;51.598;7.650;2024-03-23T08:00:25;11.20;67.80
33007;DHT22;19361;51.598;7.650;2024-03-23T08:05:26;11.30;68.00
33007;DHT22;19361;51.598;7.650;2024-03-23T08:10:27;11.40;68.20
33007;DHT22;19361;51.598;7.650;2024-03-23T08:15:30;11.50;67.20
33007;DHT22;19361;51.598;7.650;2024-03-23T08:20:33;11.60;67.30
33007;DHT22;19361;51.598;7.650;2024-03-23T08:25:34;11.80;67.10
33007;DHT22;19361;51.598;7.650;2024-03-23T08:30:35;11.90;67.10
33007;DHT22;19361;51.598;7.650;2024-03-23T08:35:36;12.10;66.70
33007;DHT22;19361;51.598;7.650;2024-03-23T08:40:37;12.30;66.00
33007;DHT22;19361;51.598;7.650;2024-03-23T08:45:37;12.30;64.00
33007;DHT22;19361;51.598;7.650;2024-03-23T08:50:38;12.40;63.90
33007;DHT22;19361;51.598;7.650;2024-03-23T08:55:39;12.40;63.70
33007;DHT22;19361;51.598;7.650;2024-03-23T09:00:40;12.40;63.30
33007;DHT22;19361;51.598;7.650;2024-03-23T09:05:40;12.50;63.20
33007;DHT22;19361;51.598;7.650;2024-03-23T09:10:42;12.50;62.50
33007;DHT22;19361;51.598;7.650;2024-03-23T09:15:50;12.50;61.00
33007;DHT22;19361;51.598;7.650;2024-03-23T09:20:52;12.40;61.50
33007;DHT22;19361;51.598;7.650;2024-03-23T09:25:54;12.50;61.70
33007;DHT22;19361;51.598;7.650;2024-03-23T09:30:55;12.50;60.90
33007;DHT22;19361;51.598;7.650;2024-03-23T09:35:55;12.60;60.40
33007;DHT22;19361;51.598;7.650;2024-03-23T09:40:59;12.70;60.70
33007;DHT22;19361;51.598;7.650;2024-03-23T09:46:01;12.80;58.90
33007;DHT22;19361;51.598;7.650;2024-03-23T09:51:03;12.90;59.00
33007;DHT22;19361;51.598;7.650;2024-03-23T09:56:04;13.00;58.60
33007;DHT22;19361;51.598;7.650;2024-03-23T10:01:05;13.10;57.00
33007;DHT22;19361;51.598;7.650;2024-03-23T10:06:06;13.10;56.60
33007;DHT22;19361;51.598;7.650;2024-03-23T10:11:16;13.00;56.70
33007;DHT22;19361;51.598;7.650;2024-03-23T10:16:22;12.80;56.60
33007;DHT22;19361;51.598;7.650;2024-03-23T10:21:24;12.60;58.70
33007;DHT22;19361;51.598;7.650;2024-03-23T10:26:25;12.50;58.70
33007;DHT22;19361;51.598;7.650;2024-03-23T10:31:32;12.50;59.60
33007;DHT22;19361;51.598;7.650;2024-03-23T10:36:34;12.50;58.70
33007;DHT22;19361;51.598;7.650;2024-03-23T10:41:37;12.50;58.00
33007;DHT22;19361;51.598;7.650;2024-03-23T10:46:40;12.50;57.10
33007;DHT22;19361;51.598;7.650;2024-03-23T10:51:40;12.50;56.90
33007;DHT22;19361;51.598;7.650;2024-03-23T10:56:41;12.70;56.50
33007;DHT22;19361;51.598;7.650;2024-03-23T11:01:58;12.80;55.20
33007;DHT22;19361;51.598;7.650;2024-03-23T11:07:01;12.90;54.40
33007;DHT22;19361;51.598;7.650;2024-03-23T11:17:22;13.00;52.60
33007;DHT22;19361;51.598;7.650;2024-03-23T11:22:45;13.00;52.90
33007;DHT22;19361;51.598;7.650;2024-03-23T11:27:48;12.90;52.80
33007;DHT22;19361;51.598;7.650;2024-03-23T11:32:55;13.00;53.50
33007;DHT22;19361;51.598;7.650;2024-03-23T11:43:10;13.20;51.50
33007;DHT22;19361;51.598;7.650;2024-03-23T11:48:17;13.00;53.00
33007;DHT22;19361;51.598;7.650;2024-03-23T11:53:22;12.50;53.70
33007;DHT22;19361;51.598;7.650;2024-03-23T11:58:25;12.00;54.20
33007;DHT22;19361;51.598;7.650;2024-03-23T12:03:27;11.60;55.60
33007;DHT22;19361;51.598;7.650;2024-03-23T12:08:33;11.40;57.30
33007;DHT22;19361;51.598;7.650;2024-03-23T12:13:35;11.30;58.40
33007;DHT22;19361;51.598;7.650;2024-03-23T12:18:39;11.40;59.60
33007;DHT22;19361;51.598;7.650;2024-03-23T12:23:44;11.60;59.40
33007;DHT22;19361;51.598;7.650;2024-03-23T12:28:47;11.80;59.10
33007;DHT22;19361;51.598;7.650;2024-03-23T12:33:47;11.90;58.00
33007;DHT22;19361;51.598;7.650;2024-03-23T12:38:48;12.00;57.40
33007;DHT22;19361;51.598;7.650;2024-03-23T12:43:49;12.10;57.20
33007;DHT22;19361;51.598;7.650;2024-03-23T12:48:49;12.20;56.80
33007;DHT22;19361;51.598;7.650;2024-03-23T12:53:50;12.40;56.50
33007;DHT22;19361;51.598;7.650;2024-03-23T12:58:51;12.50;56.00
33007;DHT22;19361;51.598;7.650;2024-03-23T13:03:53;12.60;55.40
33007;DHT22;19361;51.598;7.650;2024-03-23T13:08:53;12.70;55.60
33007;DHT22;19361;51.598;7.650;2024-03-23T13:13:55;12.60;56.00
33007;DHT22;19361;51.598;7.650;2024-03-23T13:18:56;12.60;58.20
33007;DHT22;19361;51.598;7.650;2024-03-23T13:23:56;12.80;58.30
33007;DHT22;19361;51.598;7.650;2024-03-23T13:28:57;13.10;56.20
33007;DHT22;19361;51.598;7.650;2024-03-23T13:33:58;13.20;54.00
33007;DHT22;19361;51.598;7.650;2024-03-23T13:38:58;13.20;53.00
33007;DHT22;19361;51.598;7.650;2024-03-23T13:43:59;13.20;53.20
33007;DHT22;19361;51.598;7.650;2024-03-23T13:49:00;13.10;53.50
33007;DHT22;19361;51.598;7.650;2024-03-23T13:54:01;13.10;53.00
33007;DHT22;19361;51.598;7.650;2024-03-23T13:59:02;13.00;52.10
33007;DHT22;19361;51.598;7.650;2024-03-23T14:04:03;12.80;52.30
33007;DHT22;19361;51.598;7.650;2024-03-23T14:09:04;12.40;52.50
33007;DHT22;19361;51.598;7.650;2024-03-23T14:14:05;12.30;54.60
33007;DHT22;19361;51.598;7.650;2024-03-23T14:19:06;12.20;55.70
33007;DHT22;19361;51.598;7.650;2024-03-23T14:24:07;12.20;55.70
33007;DHT22;19361;51.598;7.650;2024-03-23T14:29:09;12.20;55.80
33007;DHT22;19361;51.598;7.650;2024-03-23T14:34:10;12.20;55.20
33007;DHT22;19361;51.598;7.650;2024-03-23T14:39:10;12.20;54.30
33007;DHT22;19361;51.598;7.650;2024-03-23T14:44:13;12.10;54.00
33007;DHT22;19361;51.598;7.650;2024-03-23T14:49:15;12.10;55.00
33007;DHT22;19361;51.598;7.650;2024-03-23T14:54:18;12.30;54.30
33007;DHT22;19361;51.598;7.650;2024-03-23T14:59:19;12.30;54.10
33007;DHT22;19361;51.598;7.650;2024-03-23T15:04:21;12.40;54.20
33007;DHT22;19361;51.598;7.650;2024-03-23T15:09:21;12.40;52.50
33007;DHT22;19361;51.598;7.650;2024-03-23T15:14:23;12.30;52.80
33007;DHT22;19361;51.598;7.650;2024-03-23T15:19:24;12.30;52.60
33007;DHT22;19361;51.598;7.650;2024-03-23T15:24:25;12.20;52.00
33007;DHT22;19361;51.598;7.650;2024-03-23T15:29:26;12.20;52.60
33007;DHT22;19361;51.598;7.650;2024-03-23T15:34:26;12.20;52.70
33007;DHT22;19361;51.598;7.650;2024-03-23T15:39:27;12.20;52.20
33007;DHT22;19361;51.598;7.650;2024-03-23T15:44:29;12.10;52.10
33007;DHT22;19361;51.598;7.650;2024-03-23T15:49:30;12.10;52.50
33007;DHT22;19361;51.598;7.650;2024-03-23T15:54:31;12.10;52.60
33007;DHT22;19361;51.598;7.650;2024-03-23T15:59:32;12.10;52.50
33007;DHT22;19361;51.598;7.650;2024-03-23T16:04:32;12.10;52.50
33007;DHT22;19361;51.598;7.650;2024-03-23T16:09:33;12.10;52.20
33007;DHT22;19361;51.598;7.650;2024-03-23T16:14:34;12.20;50.90
33007;DHT22;19361;51.598;7.650;2024-03-23T16:19:34;12.10;50.90
33007;DHT22;19361;51.598;7.650;2024-03-23T16:24:35;12.10;51.60
33007;DHT22;19361;51.598;7.650;2024-03-23T16:29:36;12.00;51.50
33007;DHT22;19361;51.598;7.650;2024-03-23T16:34:36;12.00;50.70
33007;DHT22;19361;51.598;7.650;2024-03-23T16:39:37;12.00;50.80
33007;DHT22;19361;51.598;7.650;2024-03-23T16:44:38;12.00;50.50
33007;DHT22;19361;51.598;7.650;2024-03-23T16:49:39;12.00;50.40
33007;DHT22;19361;51.598;7.650;2024-03-23T16:54:40;12.00;50.10
33007;DHT22;19361;51.598;7.650;2024-03-23T16:59:41;11.90;50.10
33007;DHT22;19361;51.598;7.650;2024-03-23T17:04:41;11.90;50.30
33007;DHT22;19361;51.598;7.650;2024-03-23T17:09:47;11.70;50.40
33007;DHT22;19361;51.598;7.650;2024-03-23T17:14:48;11.60;50.20
33007;DHT22;19361;51.598;7.650;2024-03-23T17:19:48;11.50;50.20
33007;DHT22;19361;51.598;7.650;2024-03-23T17:24:52;11.40;50.40
33007;DHT22;19361;51.598;7.650;2024-03-23T17:29:53;11.30;50.90
33007;DHT22;19361;51.598;7.650;2024-03-23T17:34:54;11.20;51.20
33007;DHT22;19361;51.598;7.650;2024-03-23T17:39:54;11.10;51.40
33007;DHT22;19361;51.598;7.650;2024-03-23T17:44:55;11.00;51.60
33007;DHT22;19361;51.598;7.650;2024-03-23T17:49:56;11.00;52.30
33007;DHT22;19361;51.598;7.650;2024-03-23T17:54:57;10.90;54.40
33007;DHT22;19361;51.598;7.650;2024-03-23T17:59:58;10.80;54.20
33007;DHT22;19361;51.598;7.650;2024-03-23T18:04:58;10.50;54.80
33007;DHT22;19361;51.598;7.650;2024-03-23T18:10:00;10.20;55.20
33007;DHT22;19361;51.598;7.650;2024-03-23T18:15:00;10.00;56.00
33007;DHT22;19361;51.598;7.650;2024-03-23T18:20:05;9.70;56.30
33007;DHT22;19361;51.598;7.650;2024-03-23T18:25:06;9.60;56.80
33007;DHT22;19361;51.598;7.650;2024-03-23T18:30:07;9.40;57.00
33007;DHT22;19361;51.598;7.650;2024-03-23T18:35:08;9.30;57.50
33007;DHT22;19361;51.598;7.650;2024-03-23T18:40:09;9.20;57.90
33007;DHT22;19361;51.598;7.650;2024-03-23T18:45:10;9.10;58.40
33007;DHT22;19361;51.598;7.650;2024-03-23T18:50:11;9.00;58.80
33007;DHT22;19361;51.598;7.650;2024-03-23T18:55:11;8.90;58.70
33007;DHT22;19361;51.598;7.650;2024-03-23T19:00:13;8.80;59.00
33007;DHT22;19361;51.598;7.650;2024-03-23T19:05:14;8.70;59.40
33007;DHT22;19361;51.598;7.650;2024-03-23T19:10:14;8.70;59.70
33007;DHT22;19361;51.598;7.650;2024-03-23T19:15:15;8.60;59.90
33007;DHT22;19361;51.598;7.650;2024-03-23T19:20:16;8.60;59.90
33007;DHT22;19361;51.598;7.650;2024-03-23T19:25:16;8.50;60.00
33007;DHT22;19361;51.598;7.650;2024-03-23T19:30:17;8.50;60.20
33007;DHT22;19361;51.598;7.650;2024-03-23T19:35:18;8.40;60.30
33007;DHT22;19361;51.598;7.650;2024-03-23T19:40:19;8.40;60.50
33007;DHT22;19361;51.598;7.650;2024-03-23T19:45:20;8.40;60.70
33007;DHT22;19361;51.598;7.650;2024-03-23T19:50:20;8.40;60.60
33007;DHT22;19361;51.598;7.650;2024-03-23T19:55:21;8.40;60.80
33007;DHT22;19361;51.598;7.650;2024-03-23T20:00:22;8.40;60.90
33007;DHT22;19361;51.598;7.650;2024-03-23T20:05:22;8.30;60.80
33007;DHT22;19361;51.598;7.650;2024-03-23T20:10:23;8.40;61.20
33007;DHT22;19361;51.598;7.650;2024-03-23T20:15:24;8.40;61.00
33007;DHT22;19361;51.598;7.650;2024-03-23T20:20:24;8.40;61.30
33007;DHT22;19361;51.598;7.650;2024-03-23T20:25:25;8.40;61.20
33007;DHT22;19361;51.598;7.650;2024-03-23T20:30:26;8.40;61.50
33007;DHT22;19361;51.598;7.650;2024-03-23T20:35:26;8.40;61.50
33007;DHT22;19361;51.598;7.650;2024-03-23T20:40:28;8.50;61.60
33007;DHT22;19361;51.598;7.650;2024-03-23T20:45:30;8.50;62.00
33007;DHT22;19361;51.598;7.650;2024-03-23T20:50:31;8.50;61.70
33007;DHT22;19361;51.598;7.650;2024-03-23T20:55:32;8.50;61.30
33007;DHT22;19361;51.598;7.650;2024-03-23T21:00:32;8.50;61.30
33007;DHT22;19361;51.598;7.650;2024-03-23T21:05:33;8.40;61.20
33007;DHT22;19361;51.598;7.650;2024-03-23T21:10:34;8.40;61.40
33007;DHT22;19361;51.598;7.650;2024-03-23T21:15:34;8.40;61.70
33007;DHT22;19361;51.598;7.650;2024-03-23T21:20:35;8.40;62.20
33007;DHT22;19361;51.598;7.650;2024-03-23T21:25:36;8.40;62.40
33007;DHT22;19361;51.598;7.650;2024-03-23T21:30:36;8.40;62.40
33007;DHT22;19361;51.598;7.650;2024-03-23T21:35:37;8.40;62.60
33007;DHT22;19361;51.598;7.650;2024-03-23T21:40:37;8.40;62.50
33007;DHT22;19361;51.598;7.650;2024-03-23T21:45:38;8.20;62.30
33007;DHT22;19361;51.598;7.650;2024-03-23T21:50:39;8.20;62.60
33007;DHT22;19361;51.598;7.650;2024-03-23T21:55:50;8.10;62.80
33007;DHT22;19361;51.598;7.650;2024-03-23T22:00:52;8.00;63.50
33007;DHT22;19361;51.598;7.650;2024-03-23T22:05:55;8.00;63.40
33007;DHT22;19361;51.598;7.650;2024-03-23T22:10:58;8.00;63.90
33007;DHT22;19361;51.598;7.650;2024-03-23T22:16:02;8.00;64.10
33007;DHT22;19361;51.598;7.650;2024-03-23T22:21:03;8.00;64.20
33007;DHT22;19361;51.598;7.650;2024-03-23T22:26:04;8.00;64.30
33007;DHT22;19361;51.598;7.650;2024-03-23T22:31:05;8.00;64.30
33007;DHT22;19361;51.598;7.650;2024-03-23T22:36:07;8.00;64.10
33007;DHT22;19361;51.598;7.650;2024-03-23T22:41:08;8.00;64.00
33007;DHT22;19361;51.598;7.650;2024-03-23T22:46:09;8.00;64.40
33007;DHT22;19361;51.598;7.650;2024-03-23T22:51:12;7.90;64.30
33007;DHT22;19361;51.598;7.650;2024-03-23T22:56:13;7.80;64.60
33007;DHT22;19361;51.598;7.650;2024-03-23T23:01:13;7.80;64.40
33007;DHT22;19361;51.598;7.650;2024-03-23T23:06:14;7.80;64.60
33007;DHT22;19361;51.598;7.650;2024-03-23T23:11:15;7.70;65.00
33007;DHT22;19361;51.598;7.650;2024-03-23T23:16:15;7.70;64.90
33007;DHT22;19361;51.598;7.650;2024-03-23T23:21:16;7.70;65.00
33007;DHT22;19361;51.598;7.650;2024-03-23T23:26:19;7.60;65.00
33007;DHT22;19361;51.598;7.650;2024-03-23T23:31:19;7.60;65.40
33007;DHT22;19361;51.598;7.650;2024-03-23T23:36:20;7.60;65.50
33007;DHT22;19361;51.598;7.650;2024-03-23T23:41:21;7.60;65.60
33007;DHT22;19361;51.598;7.650;2024-03-23T23:46:22;7.60;65.50
33007;DHT22;19361;51.598;7.650;2024-03-23T23:51:23;7.60;66.00
33007;DHT22;19361;51.598;7.650;2024-03-23T23:56:24;7.70;66.60
